createdAt,value
2018-11-27T00:00:43.940Z,102185.97
2018-11-27T00:03:13.306Z,102173.76
2018-11-27T00:05:42.523Z,102173.08
2018-11-27T00:08:11.882Z,102180.39
2018-11-27T00:10:41.382Z,102168.39
2018-11-27T00:13:10.499Z,102169.67
2018-11-27T00:15:39.806Z,102173.02
2018-11-27T00:18:09.248Z,102171.25
2018-11-27T00:20:38.306Z,102168.77
2018-11-27T00:23:07.858Z,102171.62
2018-11-27T00:25:37.738Z,102183.69
2018-11-27T00:28:07.101Z,102182.99
2018-11-27T00:30:36.342Z,102182.48
2018-11-27T00:33:06.111Z,102195.13
2018-11-27T00:35:35.433Z,102191.08
2018-11-27T00:38:04.597Z,102186.63
2018-11-27T00:40:34.376Z,102182.77
2018-11-27T00:43:03.595Z,102194.42
2018-11-27T00:45:32.881Z,102185.98
2018-11-27T00:48:02.261Z,102195.72
2018-11-27T00:50:31.583Z,102189.34
2018-11-27T00:53:01.075Z,102185.25
2018-11-27T00:55:30.469Z,102183.59
2018-11-27T00:57:59.955Z,102186.18
2018-11-27T01:00:29.340Z,102183.41
2018-11-27T01:02:59.021Z,102188.63
2018-11-27T01:05:28.437Z,102183.96
2018-11-27T01:07:57.838Z,102185.31
2018-11-27T01:10:27.632Z,102197.42
2018-11-27T01:12:57.308Z,102195.36
2018-11-27T01:15:26.620Z,102196.84
2018-11-27T01:17:58.034Z,102187.64
2018-11-27T01:20:28.333Z,102191.20
2018-11-27T01:22:57.486Z,102195.97
2018-11-27T01:25:26.997Z,102190.69
2018-11-27T01:27:56.456Z,102196.36
2018-11-27T01:30:25.671Z,102189.41
2018-11-27T01:32:55.221Z,102196.65
2018-11-27T01:35:24.815Z,102201.00
2018-11-27T01:37:54.855Z,102200.52
2018-11-27T01:40:25.217Z,102195.91
2018-11-27T01:42:58.972Z,102202.12
2018-11-27T01:45:28.483Z,102211.19
2018-11-27T01:47:57.640Z,102201.47
2018-11-27T01:50:27.200Z,102209.77
2018-11-27T01:52:56.800Z,102209.02
2018-11-27T01:55:26.102Z,102207.02
2018-11-27T01:57:55.516Z,102214.13
2018-11-27T02:00:28.546Z,102212.45
2018-11-27T02:02:58.294Z,102205.22
2018-11-27T02:05:27.931Z,102208.79
2018-11-27T02:07:57.707Z,102206.50
2018-11-27T02:10:27.199Z,102210.36
2018-11-27T02:13:01.234Z,102200.92
2018-11-27T02:15:28.779Z,102203.78
2018-11-27T02:17:58.095Z,102199.41
2018-11-27T02:20:27.510Z,102205.79
2018-11-27T02:22:57.061Z,102212.80
2018-11-27T02:25:28.609Z,102225.20
2018-11-27T02:27:58.211Z,102224.34
2018-11-27T02:30:28.591Z,102220.39
2018-11-27T02:32:58.123Z,102227.83
2018-11-27T02:35:27.855Z,102234.36
2018-11-27T02:37:58.016Z,102242.65
2018-11-27T02:40:27.470Z,102238.17
2018-11-27T02:42:59.631Z,102226.64
2018-11-27T02:45:29.333Z,102242.64
2018-11-27T02:47:58.716Z,102237.94
2018-11-27T02:50:28.094Z,102245.32
2018-11-27T02:52:57.481Z,102232.69
2018-11-27T02:55:27.500Z,102233.20
2018-11-27T02:57:57.157Z,102227.20
2018-11-27T03:00:27.555Z,102224.09
2018-11-27T03:02:57.114Z,102219.05
2018-11-27T03:05:36.628Z,102225.94
2018-11-27T03:08:05.972Z,102241.77
2018-11-27T03:10:55.271Z,102237.57
2018-11-27T03:13:24.578Z,102233.50
2018-11-27T03:15:54.144Z,102236.17
2018-11-27T03:18:23.591Z,102235.34
2018-11-27T03:20:52.854Z,102227.56
2018-11-27T03:23:22.370Z,102235.19
2018-11-27T03:25:51.824Z,102241.31
2018-11-27T03:28:21.103Z,102245.59
2018-11-27T03:30:50.452Z,102239.16
2018-11-27T03:33:19.814Z,102237.13
2018-11-27T03:35:49.099Z,102228.62
2018-11-27T03:38:18.495Z,102238.41
2018-11-27T03:40:47.946Z,102240.90
2018-11-27T03:43:17.223Z,102225.92
2018-11-27T03:45:46.397Z,102234.77
2018-11-27T03:48:16.236Z,102236.45
2018-11-27T03:50:45.427Z,102234.88
2018-11-27T03:53:14.783Z,102241.54
2018-11-27T03:55:44.253Z,102238.12
2018-11-27T03:58:13.454Z,102239.67
2018-11-27T04:00:42.753Z,102240.77
2018-11-27T04:03:13.086Z,102241.05
2018-11-27T04:05:43.000Z,102246.23
2018-11-27T04:08:12.330Z,102244.75
2018-11-27T04:10:42.415Z,102242.11
2018-11-27T04:13:11.680Z,102242.11
2018-11-27T04:15:40.924Z,102244.00
2018-11-27T04:18:10.290Z,102253.23
2018-11-27T04:20:39.612Z,102261.28
2018-11-27T04:23:08.964Z,102258.19
2018-11-27T04:25:38.349Z,102263.76
2018-11-27T04:28:08.467Z,102269.08
2018-11-27T04:30:37.662Z,102271.66
2018-11-27T04:33:07.124Z,102265.89
2018-11-27T04:35:36.505Z,102268.69
2018-11-27T04:38:06.157Z,102266.53
2018-11-27T04:40:35.845Z,102272.72
2018-11-27T04:43:05.196Z,102274.94
2018-11-27T04:45:34.705Z,102278.06
2018-11-27T04:48:04.000Z,102280.25
2018-11-27T04:50:33.308Z,102287.30
2018-11-27T04:53:02.586Z,102284.44
2018-11-27T04:55:31.972Z,102281.60
2018-11-27T04:58:01.172Z,102242.11
2018-11-27T05:00:30.292Z,102156.50
2018-11-27T05:02:59.567Z,102284.43
2018-11-27T05:05:29.357Z,102281.94
2018-11-27T05:07:58.754Z,102295.83
2018-11-27T05:10:28.441Z,102288.41
2018-11-27T05:12:58.119Z,102283.60
2018-11-27T05:15:27.577Z,102288.76
2018-11-27T05:17:58.187Z,102297.27
2018-11-27T05:20:28.024Z,102290.53
2018-11-27T05:22:57.503Z,102293.63
2018-11-27T05:25:27.153Z,102292.74
2018-11-27T05:27:57.474Z,102299.27
2018-11-27T05:30:29.025Z,102305.38
2018-11-27T05:32:58.448Z,102308.88
2018-11-27T05:35:30.142Z,102301.92
2018-11-27T05:38:00.555Z,102315.33
2018-11-27T05:40:29.993Z,102319.61
2018-11-27T05:43:03.872Z,102318.02
2018-11-27T05:45:33.377Z,102321.63
2018-11-27T05:48:02.607Z,102322.92
2018-11-27T05:50:32.463Z,102322.84
2018-11-27T05:53:01.625Z,102325.20
2018-11-27T05:55:30.871Z,102320.82
2018-11-27T05:58:00.570Z,102320.95
2018-11-27T06:00:31.260Z,102327.27
2018-11-27T06:03:01.815Z,102329.00
2018-11-27T06:05:31.409Z,102325.27
2018-11-27T06:08:00.747Z,102328.16
2018-11-27T06:10:30.691Z,102333.70
2018-11-27T06:13:00.012Z,102339.47
2018-11-27T06:15:29.771Z,102339.17
2018-11-27T06:18:00.891Z,102343.73
2018-11-27T06:20:30.635Z,102346.10
2018-11-27T06:22:59.988Z,102347.69
2018-11-27T06:25:30.278Z,102350.27
2018-11-27T06:28:04.992Z,102353.66
2018-11-27T06:30:35.211Z,102351.27
2018-11-27T06:33:05.376Z,102352.16
2018-11-27T06:35:38.254Z,102346.48
2018-11-27T06:38:08.836Z,102344.41
2018-11-27T06:40:38.091Z,102349.34
2018-11-27T06:43:09.068Z,102361.55
2018-11-27T06:45:38.583Z,102364.55
2018-11-27T06:48:08.299Z,102361.96
2018-11-27T06:50:38.077Z,102369.92
2018-11-27T06:53:08.159Z,102372.72
2018-11-27T06:55:37.671Z,102379.78
2018-11-27T06:58:08.020Z,102317.86
2018-11-27T07:00:37.513Z,102378.36
2018-11-27T07:03:10.323Z,102379.73
2018-11-27T07:05:39.853Z,102387.08
2018-11-27T07:08:10.073Z,102389.23
2018-11-27T07:10:40.791Z,102388.62
2018-11-27T07:13:17.365Z,102388.69
2018-11-27T07:15:47.248Z,102392.86
2018-11-27T07:18:16.570Z,102397.03
2018-11-27T07:20:46.203Z,102404.25
2018-11-27T07:23:15.607Z,102405.36
2018-11-27T07:25:44.933Z,102405.84
2018-11-27T07:28:14.271Z,102403.26
2018-11-27T07:30:44.097Z,102408.42
2018-11-27T07:33:13.314Z,102410.91
2018-11-27T07:35:42.629Z,102418.75
2018-11-27T07:38:12.240Z,102421.71
2018-11-27T07:40:41.452Z,102415.39
2018-11-27T07:43:12.086Z,102416.39
2018-11-27T07:45:41.760Z,102414.58
2018-11-27T07:48:11.194Z,102425.25
2018-11-27T07:50:40.426Z,102420.48
2018-11-27T07:53:09.756Z,102426.13
2018-11-27T07:55:38.946Z,102434.09
2018-11-27T07:58:08.548Z,102441.61
2018-11-27T08:00:38.163Z,102449.88
2018-11-27T08:03:07.935Z,102459.00
2018-11-27T08:05:38.636Z,102457.71
2018-11-27T08:08:09.438Z,102452.25
2018-11-27T08:10:38.701Z,102461.48
2018-11-27T08:13:08.684Z,102463.26
2018-11-27T08:15:38.148Z,102465.66
2018-11-27T08:18:07.473Z,102463.36
2018-11-27T08:20:36.850Z,102470.01
2018-11-27T08:23:07.073Z,102469.01
2018-11-27T08:25:36.495Z,102478.56
2018-11-27T08:28:06.611Z,102473.17
2018-11-27T08:30:36.127Z,102479.85
2018-11-27T08:33:05.534Z,102480.33
2018-11-27T08:35:34.989Z,102490.59
2018-11-27T08:38:04.461Z,102493.24
2018-11-27T08:40:34.384Z,102498.31
2018-11-27T08:43:03.886Z,102497.17
2018-11-27T08:45:33.288Z,102510.44
2018-11-27T08:48:02.642Z,102511.53
2018-11-27T08:50:32.020Z,102506.59
2018-11-27T08:53:04.368Z,102509.66
2018-11-27T08:55:35.795Z,102518.28
2018-11-27T08:58:06.711Z,102517.28
2018-11-27T09:00:35.924Z,102519.28
2018-11-27T09:03:05.528Z,102519.22
2018-11-27T09:05:35.014Z,102521.34
2018-11-27T09:08:04.492Z,102529.80
2018-11-27T09:10:33.986Z,102529.38
2018-11-27T09:13:03.173Z,102525.96
2018-11-27T09:15:32.446Z,102530.25
2018-11-27T09:18:04.909Z,102528.70
2018-11-27T09:20:34.231Z,102532.83
2018-11-27T09:23:03.509Z,102528.48
2018-11-27T09:25:33.058Z,102536.22
2018-11-27T09:28:03.075Z,102532.52
2018-11-27T09:30:32.349Z,102534.51
2018-11-27T09:33:01.958Z,102535.58
2018-11-27T09:35:31.386Z,102533.16
2018-11-27T09:38:00.639Z,102546.97
2018-11-27T09:40:30.119Z,102547.52
2018-11-27T09:42:59.540Z,102551.09
2018-11-27T09:45:28.922Z,102554.89
2018-11-27T09:47:59.191Z,102568.59
2018-11-27T09:50:28.591Z,102560.77
2018-11-27T09:52:58.085Z,102566.00
2018-11-27T09:55:28.283Z,102564.09
2018-11-27T09:57:59.369Z,102562.97
2018-11-27T10:00:32.635Z,102569.81
2018-11-27T10:03:04.126Z,102573.20
2018-11-27T10:05:33.632Z,102571.03
2018-11-27T10:08:02.910Z,102572.72
2018-11-27T10:10:32.385Z,102577.72
2018-11-27T10:13:01.827Z,102576.88
2018-11-27T10:15:31.392Z,102572.70
2018-11-27T10:18:01.338Z,102571.34
2018-11-27T10:20:34.725Z,102581.86
2018-11-27T10:23:04.172Z,102574.55
2018-11-27T10:25:33.505Z,102573.18
2018-11-27T10:28:03.678Z,102572.80
2018-11-27T10:30:33.179Z,102572.94
2018-11-27T10:33:02.477Z,102568.76
2018-11-27T10:35:34.601Z,102567.86
2018-11-27T10:38:03.673Z,102571.27
2018-11-27T10:40:32.967Z,102569.90
2018-11-27T10:43:02.392Z,102576.06
2018-11-27T10:45:31.864Z,102570.51
2018-11-27T10:48:01.102Z,102572.75
2018-11-27T10:50:30.571Z,102574.44
2018-11-27T10:52:59.975Z,102572.84
2018-11-27T10:55:29.351Z,102576.34
2018-11-27T10:57:58.971Z,102577.36
2018-11-27T11:00:33.828Z,102581.16
2018-11-27T11:03:08.402Z,102576.37
2018-11-27T11:05:38.732Z,102580.28
2018-11-27T11:08:08.076Z,102585.23
2018-11-27T11:10:37.384Z,102582.56
2018-11-27T11:13:06.940Z,102588.73
2018-11-27T11:15:36.446Z,102590.32
2018-11-27T11:18:05.930Z,102590.53
2018-11-27T11:20:35.348Z,102588.33
2018-11-27T11:23:04.991Z,102593.63
2018-11-27T11:25:34.158Z,102596.72
2018-11-27T11:28:03.658Z,102598.70
2018-11-27T11:30:33.896Z,102592.84
2018-11-27T11:33:03.129Z,102598.50
2018-11-27T11:35:32.354Z,102597.80
2018-11-27T11:38:01.638Z,102598.02
2018-11-27T11:40:30.933Z,102595.21
2018-11-27T11:43:00.547Z,102606.17
2018-11-27T11:45:30.073Z,102598.70
2018-11-27T11:47:59.564Z,102601.41
2018-11-27T11:50:32.419Z,102599.81
2018-11-27T11:53:10.780Z,102598.81
2018-11-27T11:55:40.256Z,102599.29
2018-11-27T11:58:09.653Z,102598.51
2018-11-27T12:00:41.924Z,102597.40
2018-11-27T12:03:11.504Z,102599.91
2018-11-27T12:05:40.930Z,102602.58
2018-11-27T12:08:10.537Z,102601.88
2018-11-27T12:10:40.038Z,102598.51
2018-11-27T12:13:10.466Z,102599.29
2018-11-27T12:15:39.866Z,102607.19
2018-11-27T12:18:10.019Z,102599.02
2018-11-27T12:20:39.918Z,102607.78
2018-11-27T12:23:10.227Z,102606.69
2018-11-27T12:25:39.956Z,102607.68
2018-11-27T12:28:14.672Z,102602.19
2018-11-27T12:30:39.284Z,102608.36
2018-11-27T12:33:08.919Z,102605.59
2018-11-27T12:35:38.280Z,102609.08
2018-11-27T12:38:07.513Z,102608.27
2018-11-27T12:40:36.793Z,102607.69
2018-11-27T12:43:06.248Z,102611.27
2018-11-27T12:45:35.411Z,102615.63
2018-11-27T12:48:04.968Z,102617.52
2018-11-27T12:50:44.100Z,102616.34
2018-11-27T12:53:16.745Z,102610.85
2018-11-27T12:55:45.876Z,102606.97
2018-11-27T12:58:15.194Z,102609.55
2018-11-27T13:00:44.711Z,102609.44
2018-11-27T13:03:14.229Z,102609.05
2018-11-27T13:05:44.728Z,102616.81
2018-11-27T13:08:19.859Z,102622.82
2018-11-27T13:10:49.154Z,102620.31
2018-11-27T13:13:18.327Z,102617.33
2018-11-27T13:15:47.646Z,102606.97
2018-11-27T13:18:17.032Z,102612.63
2018-11-27T13:20:46.610Z,102614.94
2018-11-27T13:23:16.119Z,102606.04
2018-11-27T13:25:45.579Z,102613.81
2018-11-27T13:28:15.469Z,102610.75
2018-11-27T13:31:07.674Z,102607.84
2018-11-27T13:34:12.834Z,102608.83
2018-11-27T13:36:42.003Z,102600.97
2018-11-27T13:39:22.157Z,102605.05
2018-11-27T13:41:51.508Z,102612.13
2018-11-27T13:44:20.784Z,102608.55
2018-11-27T13:46:50.107Z,102602.46
2018-11-27T13:49:19.509Z,102608.16
2018-11-27T13:51:48.994Z,102623.31
2018-11-27T13:54:18.158Z,102616.72
2018-11-27T13:56:47.514Z,102620.80
2018-11-27T13:59:16.943Z,102627.08
2018-11-27T14:01:46.527Z,102623.19
2018-11-27T14:04:15.804Z,102626.60
2018-11-27T14:06:45.146Z,102635.16
2018-11-27T14:09:14.616Z,102641.33
2018-11-27T14:11:43.894Z,102637.14
2018-11-27T14:14:13.108Z,102647.23
2018-11-27T14:16:42.273Z,102643.14
2018-11-27T14:19:11.611Z,102643.22
2018-11-27T14:21:41.124Z,102652.70
2018-11-27T14:24:10.428Z,102659.27
2018-11-27T14:26:39.508Z,102652.52
2018-11-27T14:29:08.807Z,102655.19
2018-11-27T14:31:38.107Z,102653.00
2018-11-27T14:34:07.482Z,102651.22
2018-11-27T14:36:36.602Z,102655.89
2018-11-27T14:39:09.539Z,102650.30
2018-11-27T14:41:38.734Z,102647.70
2018-11-27T14:44:08.055Z,102653.20
2018-11-27T14:46:37.433Z,102648.52
2018-11-27T14:49:06.752Z,102662.38
2018-11-27T14:51:35.990Z,102622.81
2018-11-27T14:54:06.018Z,102661.06
2018-11-27T14:56:35.379Z,102662.38
2018-11-27T14:59:04.720Z,102663.58
2018-11-27T15:01:33.875Z,102663.85
2018-11-27T15:04:03.449Z,102672.44
2018-11-27T15:06:32.829Z,102672.92
2018-11-27T15:09:02.109Z,102675.81
2018-11-27T15:11:31.406Z,102668.65
2018-11-27T15:14:00.650Z,102669.43
2018-11-27T15:16:29.935Z,102672.14
2018-11-27T15:18:59.503Z,102675.42
2018-11-27T15:21:28.888Z,102683.80
2018-11-27T15:23:58.151Z,102686.56
2018-11-27T15:26:27.374Z,102684.49
2018-11-27T15:28:56.881Z,102692.05
2018-11-27T15:31:26.341Z,102691.96
2018-11-27T15:33:55.487Z,102687.17
2018-11-27T15:36:24.747Z,102693.14
2018-11-27T15:38:54.099Z,102688.05
2018-11-27T15:41:23.259Z,102679.59
2018-11-27T15:43:52.470Z,102686.54
2018-11-27T15:46:22.823Z,102680.37
2018-11-27T15:48:52.174Z,102683.34
2018-11-27T15:51:21.575Z,102688.26
2018-11-27T15:53:51.057Z,102687.92
2018-11-27T15:56:20.347Z,102687.53
2018-11-27T15:58:49.731Z,102687.92
2018-11-27T16:01:18.959Z,102595.22
2018-11-27T16:03:48.240Z,102698.09
2018-11-27T16:06:17.669Z,102696.08
2018-11-27T16:08:47.077Z,102704.66
2018-11-27T16:11:16.553Z,102712.61
2018-11-27T16:13:49.070Z,102707.16
2018-11-27T16:16:15.427Z,102703.07
2018-11-27T16:18:44.827Z,102699.78
2018-11-27T16:21:14.269Z,102706.17
2018-11-27T16:23:43.662Z,102707.94
2018-11-27T16:26:13.479Z,102707.73
2018-11-27T16:28:43.334Z,102704.44
2018-11-27T16:31:13.486Z,102713.07
2018-11-27T16:33:43.422Z,102713.16
2018-11-27T16:36:13.101Z,102714.83
2018-11-27T16:38:42.998Z,102719.30
2018-11-27T16:41:12.764Z,102718.09
2018-11-27T16:43:42.421Z,102716.58
2018-11-27T16:46:11.579Z,102722.44
2018-11-27T16:48:41.040Z,102724.12
2018-11-27T16:51:10.477Z,102724.70
2018-11-27T16:53:39.924Z,102737.72
2018-11-27T16:56:09.485Z,102727.44
2018-11-27T16:58:39.190Z,102738.09
2018-11-27T17:01:09.251Z,102733.81
2018-11-27T17:03:37.906Z,102734.59
2018-11-27T17:06:07.576Z,102738.09
2018-11-27T17:08:37.044Z,102707.11
2018-11-27T17:11:06.793Z,102735.64
2018-11-27T17:13:36.507Z,102731.23
2018-11-27T17:16:07.867Z,102742.88
2018-11-27T17:18:38.356Z,102743.08
2018-11-27T17:21:09.173Z,102751.70
2018-11-27T17:23:38.895Z,102752.52
2018-11-27T17:26:08.797Z,102753.06
2018-11-27T17:28:38.112Z,102758.23
2018-11-27T17:31:10.857Z,102762.12
2018-11-27T17:33:41.883Z,102753.88
2018-11-27T17:36:11.645Z,102762.54
2018-11-27T17:38:41.145Z,102767.88
2018-11-27T17:41:10.790Z,102771.52
2018-11-27T17:43:40.608Z,102767.45
2018-11-27T17:46:10.055Z,102775.47
2018-11-27T17:48:39.810Z,102770.09
2018-11-27T17:51:09.255Z,102772.69
2018-11-27T17:53:38.588Z,102777.73
2018-11-27T17:56:08.229Z,102771.84
2018-11-27T17:58:37.474Z,102776.39
2018-11-27T18:01:06.904Z,102768.02
2018-11-27T18:03:36.733Z,102773.87
2018-11-27T18:06:06.637Z,102772.41
2018-11-27T18:08:36.327Z,102772.23
2018-11-27T18:11:05.864Z,102727.42
2018-11-27T18:13:36.009Z,102783.91
2018-11-27T18:16:05.833Z,102789.80
2018-11-27T18:18:36.478Z,102797.60
2018-11-27T18:21:06.970Z,102673.79
2018-11-27T18:23:36.950Z,102800.47
2018-11-27T18:26:07.614Z,102797.92
2018-11-27T18:28:38.485Z,102799.74
2018-11-27T18:31:08.882Z,102797.64
2018-11-27T18:33:38.113Z,102794.44
2018-11-27T18:36:07.580Z,102800.80
2018-11-27T18:38:37.396Z,102805.44
2018-11-27T18:41:08.043Z,102809.49
2018-11-27T18:43:37.915Z,102820.83
2018-11-27T18:46:07.653Z,102822.36
2018-11-27T18:48:37.937Z,102827.95
2018-11-27T18:51:07.406Z,102824.50
2018-11-27T18:53:36.818Z,102822.59
2018-11-27T18:56:06.646Z,102819.09
2018-11-27T18:58:36.618Z,102829.09
2018-11-27T19:01:06.176Z,102832.23
2018-11-27T19:03:35.768Z,102834.05
2018-11-27T19:06:05.274Z,102834.08
2018-11-27T19:08:34.335Z,102841.23
2018-11-27T19:11:05.631Z,102841.78
2018-11-27T19:13:35.300Z,102842.20
2018-11-27T19:16:05.064Z,102845.06
2018-11-27T19:18:34.114Z,102845.58
2018-11-27T19:21:03.412Z,102849.20
2018-11-27T19:23:32.765Z,102846.13
2018-11-27T19:26:02.141Z,102844.00
2018-11-27T19:28:31.225Z,102851.98
2018-11-27T19:31:00.743Z,102848.03
2018-11-27T19:33:29.870Z,102848.30
2018-11-27T19:35:59.462Z,102856.53
2018-11-27T19:38:28.955Z,102856.05
2018-11-27T19:40:58.758Z,102856.56
2018-11-27T19:43:27.977Z,102850.11
2018-11-27T19:45:57.694Z,102860.42
2018-11-27T19:48:27.299Z,102860.21
2018-11-27T19:50:57.319Z,102866.13
2018-11-27T19:53:27.419Z,102873.87
2018-11-27T19:55:57.465Z,102870.53
2018-11-27T19:58:26.898Z,102873.34
2018-11-27T20:00:56.414Z,102875.16
2018-11-27T20:03:25.760Z,102873.13
2018-11-27T20:05:55.222Z,102877.91
2018-11-27T20:08:24.688Z,102876.09
2018-11-27T20:10:54.360Z,102881.90
2018-11-27T20:13:24.163Z,102877.31
2018-11-27T20:15:53.880Z,102875.23
2018-11-27T20:18:23.367Z,102883.23
2018-11-27T20:20:52.842Z,102885.17
2018-11-27T20:23:23.104Z,102890.72
2018-11-27T20:25:52.994Z,102893.05
2018-11-27T20:28:22.650Z,102901.58
2018-11-27T20:30:52.256Z,102901.58
2018-11-27T20:33:22.043Z,102898.27
2018-11-27T20:35:51.790Z,102916.02
2018-11-27T20:38:21.601Z,102914.32
2018-11-27T20:40:51.562Z,102910.34
2018-11-27T20:43:21.327Z,102915.77
2018-11-27T20:45:51.113Z,102911.79
2018-11-27T20:48:21.053Z,102913.97
2018-11-27T20:50:51.706Z,102917.84
2018-11-27T20:53:21.295Z,102916.06
2018-11-27T20:55:51.167Z,102923.53
2018-11-27T20:58:20.959Z,102917.09
2018-11-27T21:00:52.164Z,102921.07
2018-11-27T21:03:22.317Z,102923.00
2018-11-27T21:05:51.839Z,102917.63
2018-11-27T21:08:21.164Z,102915.70
2018-11-27T21:10:50.468Z,102914.27
2018-11-27T21:13:20.305Z,102917.37
2018-11-27T21:15:49.849Z,102916.08
2018-11-27T21:18:19.373Z,102914.41
2018-11-27T21:20:48.876Z,102914.79
2018-11-27T21:23:18.260Z,102919.94
2018-11-27T21:25:47.651Z,102913.23
2018-11-27T21:28:18.282Z,102917.86
2018-11-27T21:30:49.527Z,102922.26
2018-11-27T21:33:18.916Z,102922.79
2018-11-27T21:35:48.246Z,102929.50
2018-11-27T21:38:17.588Z,102924.84
2018-11-27T21:40:47.249Z,102926.39
2018-11-27T21:43:16.783Z,102934.87
2018-11-27T21:45:45.906Z,102936.43
2018-11-27T21:48:15.214Z,102938.74
2018-11-27T21:50:44.929Z,102944.69
2018-11-27T21:53:14.199Z,102943.62
2018-11-27T21:55:43.950Z,102936.80
2018-11-27T21:58:13.292Z,102938.52
2018-11-27T22:00:43.078Z,102937.72
2018-11-27T22:03:13.221Z,102942.11
2018-11-27T22:05:42.658Z,102941.58
2018-11-27T22:08:11.954Z,102950.86
2018-11-27T22:10:41.268Z,102941.09
2018-11-27T22:13:12.090Z,102962.98
2018-11-27T22:15:42.406Z,102961.28
2018-11-27T22:18:12.553Z,102965.41
2018-11-27T22:20:42.083Z,102964.12
2018-11-27T22:23:11.519Z,102959.88
2018-11-27T22:25:40.856Z,102958.86
2018-11-27T22:28:10.274Z,102965.80
2018-11-27T22:30:39.656Z,102965.94
2018-11-27T22:33:09.696Z,102966.31
2018-11-27T22:35:39.254Z,102964.75
2018-11-27T22:38:09.187Z,102971.45
2018-11-27T22:40:38.694Z,102967.59
2018-11-27T22:43:08.557Z,102967.59
2018-11-27T22:45:39.815Z,102972.63
2018-11-27T22:48:10.427Z,102977.62
2018-11-27T22:50:39.786Z,102976.33
2018-11-27T22:53:09.716Z,102967.32
2018-11-27T22:55:39.209Z,102963.73
2018-11-27T22:58:08.989Z,102965.55
2018-11-27T23:00:43.497Z,102966.68
2018-11-27T23:03:13.044Z,102961.41
2018-11-27T23:05:42.427Z,102961.14
2018-11-27T23:08:11.547Z,102955.73
2018-11-27T23:10:42.178Z,102966.81
2018-11-27T23:13:11.489Z,102963.06
2018-11-27T23:15:40.826Z,102960.38
2018-11-27T23:18:10.247Z,102966.02
2018-11-27T23:20:39.668Z,102966.30
2018-11-27T23:23:09.148Z,102968.38
2018-11-27T23:25:38.597Z,102967.84
2018-11-27T23:28:07.950Z,102970.80
2018-11-27T23:30:37.140Z,102965.66
2018-11-27T23:33:06.551Z,102960.12
2018-11-27T23:35:36.141Z,102957.53
2018-11-27T23:38:05.668Z,102967.30
2018-11-27T23:40:34.849Z,102965.25
2018-11-27T23:43:04.785Z,102964.98
2018-11-27T23:45:33.950Z,102959.56
2018-11-27T23:48:03.318Z,102960.20
2018-11-27T23:50:32.557Z,102953.41
2018-11-27T23:53:01.956Z,102954.20
2018-11-27T23:55:31.383Z,102962.16
2018-11-27T23:58:00.790Z,102959.08
